createdAt,value
2017-09-10T00:00:36.839Z,12.27
2017-09-10T00:01:17.430Z,12.27
2017-09-10T00:01:58.005Z,12.28
2017-09-10T00:02:38.596Z,12.38
2017-09-10T00:03:19.176Z,12.32
2017-09-10T00:03:59.757Z,12.35
2017-09-10T00:04:40.340Z,12.37
2017-09-10T00:05:20.921Z,12.39
2017-09-10T00:06:01.507Z,12.37
2017-09-10T00:06:42.075Z,12.37
2017-09-10T00:07:22.650Z,12.27
2017-09-10T00:08:03.235Z,12.34
2017-09-10T00:08:43.801Z,12.35
2017-09-10T00:09:24.371Z,12.39
2017-09-10T00:10:04.950Z,12.37
2017-09-10T00:10:45.522Z,12.35
2017-09-10T00:11:26.105Z,12.39
2017-09-10T00:12:06.686Z,12.35
2017-09-10T00:12:47.266Z,12.41
2017-09-10T00:13:27.836Z,12.41
2017-09-10T00:14:08.409Z,12.38
2017-09-10T00:14:49.000Z,12.34
2017-09-10T00:15:29.571Z,12.37
2017-09-10T00:16:10.155Z,12.39
2017-09-10T00:16:50.745Z,12.37
2017-09-10T00:17:31.317Z,12.38
2017-09-10T00:18:11.905Z,12.38
2017-09-10T00:18:52.493Z,12.38
2017-09-10T00:19:33.072Z,12.42
2017-09-10T00:20:13.652Z,12.41
2017-09-10T00:20:54.244Z,12.38
2017-09-10T00:21:34.828Z,12.35
2017-09-10T00:22:15.403Z,12.32
2017-09-10T00:22:55.990Z,12.34
2017-09-10T00:23:36.572Z,12.35
2017-09-10T00:24:17.155Z,12.34
2017-09-10T00:24:57.729Z,12.23
2017-09-10T00:25:38.305Z,12.29
2017-09-10T00:26:18.892Z,12.24
2017-09-10T00:26:59.473Z,12.23
2017-09-10T00:27:40.058Z,12.24
2017-09-10T00:28:20.637Z,12.29
2017-09-10T00:29:01.214Z,12.28
2017-09-10T00:29:41.801Z,12.27
2017-09-10T00:30:22.386Z,12.24
2017-09-10T00:31:02.961Z,12.23
2017-09-10T00:31:43.543Z,12.21
2017-09-10T00:32:24.126Z,12.29
2017-09-10T00:33:04.707Z,12.2
2017-09-10T00:33:45.281Z,12.28
2017-09-10T00:34:25.866Z,12.29
2017-09-10T00:35:06.438Z,12.24
2017-09-10T00:35:47.024Z,12.24
2017-09-10T00:36:27.613Z,12.32
2017-09-10T00:37:08.201Z,12.32
2017-09-10T00:37:48.773Z,12.24
2017-09-10T00:38:29.362Z,12.23
2017-09-10T00:39:09.937Z,12.28
2017-09-10T00:39:50.521Z,12.28
2017-09-10T00:40:31.106Z,12.23
2017-09-10T00:41:11.687Z,12.14
2017-09-10T00:41:52.265Z,12.16
2017-09-10T00:42:32.833Z,12.12
2017-09-10T00:43:13.404Z,12.21
2017-09-10T00:43:53.989Z,12.13
2017-09-10T00:44:34.567Z,12.12
2017-09-10T00:45:15.150Z,12.09
2017-09-10T00:45:55.733Z,12.23
2017-09-10T00:46:36.320Z,12.13
2017-09-10T00:47:16.897Z,12.16
2017-09-10T00:47:57.479Z,12.14
2017-09-10T00:48:38.057Z,12.14
2017-09-10T00:49:18.634Z,12.14
2017-09-10T00:49:59.216Z,12.13
2017-09-10T00:50:39.796Z,12.16
2017-09-10T00:51:20.377Z,12.12
2017-09-10T00:52:00.953Z,12.16
2017-09-10T00:52:41.548Z,12.16
2017-09-10T00:53:22.131Z,12.14
2017-09-10T00:54:02.719Z,12.14
2017-09-10T00:54:43.297Z,12.19
2017-09-10T00:55:23.878Z,12.16
2017-09-10T00:56:04.457Z,12.19
2017-09-10T00:56:45.054Z,12.17
2017-09-10T00:57:25.633Z,12.07
2017-09-10T00:58:06.211Z,12.16
2017-09-10T00:58:46.782Z,12.16
2017-09-10T00:59:27.358Z,12.16
2017-09-10T01:00:07.931Z,12.16
2017-09-10T01:00:48.502Z,12.17
2017-09-10T01:01:29.085Z,12.14
2017-09-10T01:03:26.827Z,12.12
2017-09-10T01:04:07.405Z,12.24
2017-09-10T01:04:47.989Z,12.24
2017-09-10T01:05:28.573Z,12.23
2017-09-10T01:06:09.156Z,12.21
2017-09-10T01:06:49.741Z,12.27
2017-09-10T01:07:30.323Z,12.16
2017-09-10T01:08:10.911Z,12.24
2017-09-10T01:08:51.482Z,12.24
2017-09-10T01:09:32.068Z,12.28
2017-09-10T01:10:12.647Z,12.31
2017-09-10T01:10:53.219Z,12.24
2017-09-10T01:11:33.800Z,12.29
2017-09-10T01:12:14.366Z,12.24
2017-09-10T01:12:54.952Z,12.21
2017-09-10T01:13:35.521Z,12.27
2017-09-10T01:14:16.092Z,12.13
2017-09-10T01:14:56.679Z,12.16
2017-09-10T01:15:37.254Z,12.2
2017-09-10T01:16:17.828Z,12.16
2017-09-10T01:16:58.401Z,12.13
2017-09-10T01:17:38.986Z,12.14
2017-09-10T01:18:19.562Z,12.13
2017-09-10T01:19:00.143Z,12.12
2017-09-10T01:19:40.727Z,12.13
2017-09-10T01:20:21.303Z,12.13
2017-09-10T01:21:01.874Z,12.13
2017-09-10T01:21:42.457Z,12.16
2017-09-10T01:22:23.047Z,12.16
2017-09-10T01:23:03.629Z,12.16
2017-09-10T01:23:44.210Z,12.17
2017-09-10T01:24:24.796Z,12.19
2017-09-10T01:25:05.378Z,12.14
2017-09-10T01:25:45.962Z,12.16
2017-09-10T01:26:26.543Z,12.13
2017-09-10T01:27:07.126Z,12.13
2017-09-10T01:27:47.702Z,12.09
2017-09-10T01:28:28.282Z,12.13
2017-09-10T01:29:08.870Z,12.14
2017-09-10T01:29:49.452Z,12.07
2017-09-10T01:30:30.033Z,12.05
2017-09-10T01:31:10.602Z,12.01
2017-09-10T01:31:51.183Z,12.01
2017-09-10T01:32:31.769Z,12.01
2017-09-10T01:33:12.347Z,12.01
2017-09-10T01:33:52.934Z,11.99
2017-09-10T01:34:33.513Z,12.05
2017-09-10T01:35:14.090Z,12.05
2017-09-10T01:35:54.674Z,12.02
2017-09-10T01:36:35.256Z,12.02
2017-09-10T01:37:15.838Z,12.02
2017-09-10T01:37:56.419Z,12.07
2017-09-10T01:38:37.000Z,12.02
2017-09-10T01:39:17.577Z,12.04
2017-09-10T01:39:58.155Z,12.02
2017-09-10T01:40:38.745Z,12.05
2017-09-10T01:41:19.327Z,12.01
2017-09-10T01:41:59.907Z,11.95
2017-09-10T01:42:40.485Z,11.98
2017-09-10T01:43:21.067Z,12.07
2017-09-10T01:44:01.645Z,12.05
2017-09-10T01:44:42.227Z,12.13
2017-09-10T01:45:22.810Z,12.13
2017-09-10T01:46:03.381Z,12.13
2017-09-10T01:46:43.966Z,12.1
2017-09-10T01:47:24.544Z,12.16
2017-09-10T01:48:05.116Z,12.14
2017-09-10T01:48:45.699Z,12.07
2017-09-10T01:49:26.283Z,12.09
2017-09-10T01:50:06.865Z,12.07
2017-09-10T01:50:47.444Z,12.05
2017-09-10T01:51:28.018Z,12.1
2017-09-10T01:52:08.600Z,11.99
2017-09-10T01:52:49.182Z,12.02
2017-09-10T01:53:29.763Z,12.07
2017-09-10T01:54:10.339Z,12.04
2017-09-10T01:54:50.913Z,12.07
2017-09-10T01:55:31.493Z,12.05
2017-09-10T01:56:12.074Z,12.09
2017-09-10T01:56:52.659Z,12.16
2017-09-10T01:57:33.244Z,12.17
2017-09-10T01:58:13.803Z,12.16
2017-09-10T01:58:54.393Z,12.16
2017-09-10T01:59:34.978Z,12.13
2017-09-10T02:00:15.553Z,12.16
2017-09-10T02:00:56.138Z,12.17
2017-09-10T02:01:36.719Z,12.1
2017-09-10T02:02:17.303Z,12.12
2017-09-10T02:02:57.877Z,12.07
2017-09-10T02:03:38.462Z,12.02
2017-09-10T02:04:19.055Z,12.1
2017-09-10T02:04:59.723Z,12.09
2017-09-10T02:05:40.383Z,12.07
2017-09-10T02:06:20.973Z,12.02
2017-09-10T02:07:01.542Z,11.98
2017-09-10T02:07:42.140Z,11.86
2017-09-10T02:08:22.724Z,11.99
2017-09-10T02:09:03.311Z,12.01
2017-09-10T02:09:43.886Z,11.99
2017-09-10T02:10:24.473Z,11.95
2017-09-10T02:11:05.050Z,12.1
2017-09-10T02:11:45.627Z,12.05
2017-09-10T02:12:26.209Z,12.09
2017-09-10T02:13:06.790Z,12.09
2017-09-10T02:13:47.370Z,12.07
2017-09-10T02:14:27.953Z,12.01
2017-09-10T02:15:08.534Z,12.05
2017-09-10T02:15:49.112Z,12.05
2017-09-10T02:16:29.697Z,12.09
2017-09-10T02:17:10.269Z,12.07
2017-09-10T02:17:50.853Z,12.05
2017-09-10T02:18:31.436Z,12.02
2017-09-10T02:19:12.021Z,12.02
2017-09-10T02:19:52.608Z,12.04
2017-09-10T02:20:33.186Z,12.01
2017-09-10T02:21:13.769Z,11.99
2017-09-10T02:21:54.352Z,12.07
2017-09-10T02:22:34.935Z,12.01
2017-09-10T02:23:15.519Z,12.02
2017-09-10T02:23:56.094Z,12.01
2017-09-10T02:24:36.668Z,11.99
2017-09-10T02:25:17.248Z,11.99
2017-09-10T02:25:57.832Z,11.99
2017-09-10T02:26:38.408Z,11.98
2017-09-10T02:27:18.993Z,12.04
2017-09-10T02:27:59.577Z,12.05
2017-09-10T02:28:40.147Z,11.96
2017-09-10T02:29:20.732Z,12.05
2017-09-10T02:30:01.307Z,11.99
2017-09-10T02:30:41.882Z,11.99
2017-09-10T02:31:22.466Z,12.02
2017-09-10T02:32:03.046Z,11.95
2017-09-10T02:32:43.630Z,12.04
2017-09-10T02:33:24.208Z,12.07
2017-09-10T02:34:04.794Z,12.02
2017-09-10T02:34:45.371Z,11.99
2017-09-10T02:35:25.943Z,12.04
2017-09-10T02:36:06.527Z,11.98
2017-09-10T02:36:47.106Z,11.98
2017-09-10T02:37:27.681Z,11.98
2017-09-10T02:38:08.261Z,12.04
2017-09-10T02:38:48.845Z,12.02
2017-09-10T02:39:29.420Z,12.02
2017-09-10T02:40:10.003Z,11.98
2017-09-10T02:40:50.581Z,11.99
2017-09-10T02:41:31.154Z,12.01
2017-09-10T02:42:11.730Z,11.99
2017-09-10T02:42:52.315Z,11.98
2017-09-10T02:43:32.902Z,12.02
2017-09-10T02:44:13.474Z,11.94
2017-09-10T02:44:54.062Z,11.96
2017-09-10T02:45:34.633Z,11.9
2017-09-10T02:46:15.213Z,11.94
2017-09-10T02:46:55.794Z,11.91
2017-09-10T02:47:36.378Z,11.9
2017-09-10T02:48:16.957Z,11.82
2017-09-10T02:48:57.537Z,11.95
2017-09-10T02:49:38.114Z,11.83
2017-09-10T02:50:18.690Z,11.88
2017-09-10T02:50:59.279Z,11.91
2017-09-10T02:51:39.856Z,11.91
2017-09-10T02:52:20.437Z,11.94
2017-09-10T02:53:01.013Z,11.9
2017-09-10T02:53:41.603Z,11.85
2017-09-10T02:54:22.182Z,11.82
2017-09-10T02:55:02.757Z,11.85
2017-09-10T02:55:43.334Z,11.9
2017-09-10T02:56:23.922Z,11.9
2017-09-10T02:57:04.494Z,11.9
2017-09-10T02:57:45.066Z,11.82
2017-09-10T02:58:25.653Z,11.82
2017-09-10T02:59:06.232Z,11.85
2017-09-10T02:59:46.817Z,11.88
2017-09-10T03:00:27.401Z,11.82
2017-09-10T03:01:22.559Z,11.83
2017-09-10T03:02:03.135Z,11.83
2017-09-10T03:02:43.719Z,11.82
2017-09-10T03:03:24.293Z,11.82
2017-09-10T03:04:04.878Z,11.72
2017-09-10T03:04:45.458Z,11.78
2017-09-10T03:05:26.046Z,11.79
2017-09-10T03:06:06.623Z,11.73
2017-09-10T03:06:47.204Z,11.8
2017-09-10T03:07:27.775Z,11.8
2017-09-10T03:08:08.357Z,11.8
2017-09-10T03:08:48.937Z,11.75
2017-09-10T03:09:29.528Z,11.75
2017-09-10T03:10:10.105Z,11.7
2017-09-10T03:10:50.671Z,11.78
2017-09-10T03:11:31.249Z,11.79
2017-09-10T03:12:11.821Z,11.73
2017-09-10T03:12:52.410Z,11.67
2017-09-10T03:13:32.981Z,11.67
2017-09-10T03:14:13.566Z,11.65
2017-09-10T03:14:54.142Z,11.65
2017-09-10T03:15:34.719Z,11.7
2017-09-10T03:16:15.297Z,11.75
2017-09-10T03:16:55.883Z,11.73
2017-09-10T03:17:36.454Z,11.7
2017-09-10T03:18:17.028Z,11.75
2017-09-10T03:18:57.606Z,11.72
2017-09-10T03:19:38.183Z,11.76
2017-09-10T03:20:18.757Z,11.7
2017-09-10T03:20:59.336Z,11.7
2017-09-10T03:21:39.923Z,11.69
2017-09-10T03:22:20.494Z,11.78
2017-09-10T03:23:01.085Z,11.75
2017-09-10T03:23:41.672Z,11.75
2017-09-10T03:24:22.249Z,11.7
2017-09-10T03:25:02.830Z,11.7
2017-09-10T03:25:43.403Z,11.69
2017-09-10T03:26:23.986Z,11.67
2017-09-10T03:27:04.562Z,11.64
2017-09-10T03:27:45.136Z,11.67
2017-09-10T03:28:25.723Z,11.57
2017-09-10T03:29:06.304Z,11.67
2017-09-10T03:29:46.892Z,11.67
2017-09-10T03:30:27.468Z,11.55
2017-09-10T03:31:08.046Z,11.65
2017-09-10T03:31:48.612Z,11.55
2017-09-10T03:32:29.184Z,11.55
2017-09-10T03:33:09.771Z,11.51
2017-09-10T03:33:50.348Z,11.51
2017-09-10T03:34:30.913Z,11.55
2017-09-10T03:35:11.490Z,11.52
2017-09-10T03:35:52.082Z,11.51
2017-09-10T03:36:32.656Z,11.51
2017-09-10T03:37:13.233Z,11.54
2017-09-10T03:37:53.815Z,11.49
2017-09-10T03:38:34.404Z,11.54
2017-09-10T03:39:14.990Z,11.57
2017-09-10T03:39:55.561Z,11.51
2017-09-10T03:40:50.710Z,11.46
2017-09-10T03:41:31.281Z,11.51
2017-09-10T03:42:11.868Z,11.43
2017-09-10T03:42:52.457Z,11.44
2017-09-10T03:43:33.030Z,11.39
2017-09-10T03:44:13.610Z,11.51
2017-09-10T03:44:54.185Z,11.39
2017-09-10T03:45:34.765Z,11.42
2017-09-10T03:46:15.346Z,11.52
2017-09-10T03:46:55.926Z,11.49
2017-09-10T03:48:53.658Z,11.37
2017-09-10T03:49:34.235Z,11.42
2017-09-10T03:50:14.812Z,11.46
2017-09-10T03:50:55.395Z,11.37
2017-09-10T03:51:35.966Z,11.47
2017-09-10T03:52:16.554Z,11.39
2017-09-10T03:52:57.129Z,11.42
2017-09-10T03:53:37.710Z,11.44
2017-09-10T03:54:18.280Z,11.4
2017-09-10T03:54:58.860Z,11.39
2017-09-10T03:55:39.431Z,11.42
2017-09-10T03:57:32.558Z,11.39
2017-09-10T03:58:13.123Z,11.46
2017-09-10T03:58:53.704Z,11.42
2017-09-10T03:59:34.275Z,11.4
2017-09-10T04:00:14.849Z,11.42
2017-09-10T04:00:55.433Z,11.42
2017-09-10T04:01:36.010Z,11.37
2017-09-10T04:02:16.590Z,11.4
2017-09-10T04:02:57.162Z,11.42
2017-09-10T04:03:37.740Z,11.4
2017-09-10T04:04:18.319Z,11.43
2017-09-10T04:04:58.897Z,11.37
2017-09-10T04:05:39.470Z,11.39
2017-09-10T04:06:20.043Z,11.32
2017-09-10T04:07:00.627Z,11.32
2017-09-10T04:07:41.208Z,11.33
2017-09-10T04:08:21.780Z,11.25
2017-09-10T04:09:02.356Z,11.36
2017-09-10T04:09:42.938Z,11.29
2017-09-10T04:10:23.512Z,11.39
2017-09-10T04:11:04.105Z,11.36
2017-09-10T04:11:59.433Z,11.37
2017-09-10T04:12:40.020Z,11.37
2017-09-10T04:13:20.596Z,11.32
2017-09-10T04:14:01.183Z,11.35
2017-09-10T04:14:41.768Z,11.28
2017-09-10T04:15:22.333Z,11.33
2017-09-10T04:16:02.919Z,11.39
2017-09-10T04:16:43.505Z,11.39
2017-09-10T04:17:24.079Z,11.35
2017-09-10T04:18:04.658Z,11.36
2017-09-10T04:18:45.240Z,11.35
2017-09-10T04:19:25.841Z,11.28
2017-09-10T04:20:06.394Z,11.24
2017-09-10T04:20:46.977Z,11.19
2017-09-10T04:21:27.552Z,11.21
2017-09-10T04:22:08.120Z,11.24
2017-09-10T04:22:48.706Z,11.29
2017-09-10T04:23:29.285Z,11.29
2017-09-10T04:24:09.869Z,11.33
2017-09-10T04:24:50.448Z,11.28
2017-09-10T04:25:31.027Z,11.33
2017-09-10T04:26:11.608Z,11.22
2017-09-10T04:26:52.179Z,11.22
2017-09-10T04:27:32.772Z,11.22
2017-09-10T04:28:13.346Z,11.27
2017-09-10T04:28:53.919Z,11.27
2017-09-10T04:29:34.502Z,11.21
2017-09-10T04:30:15.086Z,11.18
2017-09-10T04:30:55.675Z,11.21
2017-09-10T04:31:36.239Z,11.19
2017-09-10T04:32:16.828Z,11.29
2017-09-10T04:32:57.408Z,11.22
2017-09-10T04:33:37.979Z,11.21
2017-09-10T04:34:18.564Z,11.22
2017-09-10T04:34:59.141Z,11.33
2017-09-10T04:35:39.720Z,11.32
2017-09-10T04:36:20.296Z,11.25
2017-09-10T04:37:00.877Z,11.28
2017-09-10T04:37:41.456Z,11.29
2017-09-10T04:38:22.040Z,11.25
2017-09-10T04:39:02.624Z,11.36
2017-09-10T04:39:43.202Z,11.28
2017-09-10T04:40:23.790Z,11.29
2017-09-10T04:41:04.369Z,11.35
2017-09-10T04:41:44.949Z,11.36
2017-09-10T04:42:25.530Z,11.32
2017-09-10T04:43:06.112Z,11.36
2017-09-10T04:43:46.691Z,11.42
2017-09-10T04:44:27.265Z,11.33
2017-09-10T04:45:07.844Z,11.39
2017-09-10T04:45:48.429Z,11.36
2017-09-10T04:46:29.013Z,11.39
2017-09-10T04:47:09.588Z,11.36
2017-09-10T04:47:50.177Z,11.42
2017-09-10T04:48:30.757Z,11.4
2017-09-10T04:49:11.320Z,11.37
2017-09-10T04:49:51.902Z,11.44
2017-09-10T04:50:32.487Z,11.42
2017-09-10T04:51:13.067Z,11.42
2017-09-10T04:51:53.647Z,11.36
2017-09-10T04:52:34.227Z,11.29
2017-09-10T04:53:14.809Z,11.29
2017-09-10T04:53:55.389Z,11.28
2017-09-10T04:54:35.974Z,11.25
2017-09-10T04:55:16.553Z,11.36
2017-09-10T04:56:53.928Z,11.36
2017-09-10T04:57:34.505Z,11.44
2017-09-10T04:58:15.082Z,11.37
2017-09-10T04:58:55.666Z,11.39
2017-09-10T04:59:50.804Z,11.43
2017-09-10T05:00:31.378Z,11.4
2017-09-10T05:01:11.959Z,11.43
2017-09-10T05:01:52.531Z,11.46
2017-09-10T05:02:33.096Z,11.42
2017-09-10T05:03:13.692Z,11.49
2017-09-10T05:03:54.273Z,11.42
2017-09-10T05:04:34.853Z,11.39
2017-09-10T05:05:15.425Z,11.52
2017-09-10T05:05:56.013Z,11.54
2017-09-10T05:06:36.579Z,11.4
2017-09-10T05:07:17.159Z,11.4
2017-09-10T05:07:57.737Z,11.39
2017-09-10T05:08:38.318Z,11.52
2017-09-10T05:09:18.905Z,11.52
2017-09-10T05:09:59.482Z,11.52
2017-09-10T05:10:40.064Z,11.49
2017-09-10T05:11:20.644Z,11.49
2017-09-10T05:12:01.222Z,11.51
2017-09-10T05:12:41.804Z,11.51
2017-09-10T05:13:22.384Z,11.55
2017-09-10T05:14:02.962Z,11.52
2017-09-10T05:14:43.541Z,11.57
2017-09-10T05:15:24.118Z,11.54
2017-09-10T05:16:04.701Z,11.55
2017-09-10T05:16:45.276Z,11.54
2017-09-10T05:17:25.856Z,11.52
2017-09-10T05:18:06.438Z,11.51
2017-09-10T05:18:47.018Z,11.54
2017-09-10T05:19:27.592Z,11.55
2017-09-10T05:20:08.177Z,11.52
2017-09-10T05:20:48.767Z,11.49
2017-09-10T05:21:29.333Z,11.55
2017-09-10T05:23:21.959Z,11.73
2017-09-10T05:24:02.529Z,11.73
2017-09-10T05:24:43.107Z,11.7
2017-09-10T05:25:23.683Z,11.76
2017-09-10T05:26:04.263Z,11.79
2017-09-10T05:26:44.843Z,11.75
2017-09-10T05:27:25.429Z,11.72
2017-09-10T05:28:06.003Z,11.73
2017-09-10T05:28:46.585Z,11.78
2017-09-10T05:29:27.164Z,11.73
2017-09-10T05:30:07.744Z,11.85
2017-09-10T05:30:48.323Z,11.86
2017-09-10T05:31:28.901Z,11.79
2017-09-10T05:32:09.487Z,11.83
2017-09-10T05:32:50.062Z,11.82
2017-09-10T05:33:30.638Z,11.85
2017-09-10T05:34:11.217Z,11.86
2017-09-10T05:34:51.796Z,11.83
2017-09-10T05:35:32.379Z,11.9
2017-09-10T05:36:12.964Z,11.95
2017-09-10T05:36:53.534Z,11.91
2017-09-10T05:37:34.111Z,12.02
2017-09-10T05:38:14.695Z,12.04
2017-09-10T05:38:55.258Z,12.02
2017-09-10T05:39:35.841Z,12.09
2017-09-10T05:40:16.423Z,12.12
2017-09-10T05:40:56.993Z,12.13
2017-09-10T05:41:37.572Z,12.1
2017-09-10T05:42:18.150Z,12.12
2017-09-10T05:42:58.733Z,12.23
2017-09-10T05:43:39.315Z,12.23
2017-09-10T05:44:19.901Z,12.21
2017-09-10T05:45:00.482Z,12.37
2017-09-10T05:45:41.064Z,12.38
2017-09-10T05:46:21.641Z,12.35
2017-09-10T05:47:02.219Z,12.37
2017-09-10T05:47:42.808Z,12.37
2017-09-10T05:48:23.382Z,12.38
2017-09-10T05:49:03.971Z,12.35
2017-09-10T05:49:44.544Z,12.41
2017-09-10T05:50:25.121Z,12.39
2017-09-10T05:51:05.699Z,12.49
2017-09-10T05:51:46.274Z,12.46
2017-09-10T05:52:26.862Z,12.42
2017-09-10T05:53:07.442Z,12.46
2017-09-10T05:53:48.018Z,12.54
2017-09-10T05:54:28.586Z,12.47
2017-09-10T05:55:09.162Z,12.49
2017-09-10T05:55:49.737Z,12.42
2017-09-10T05:56:30.317Z,12.45
2017-09-10T05:57:10.899Z,12.41
2017-09-10T05:57:51.479Z,12.46
2017-09-10T05:58:32.062Z,12.35
2017-09-10T05:59:12.635Z,12.39
2017-09-10T05:59:53.218Z,12.46
2017-09-10T06:00:33.802Z,12.41
2017-09-10T06:01:14.382Z,12.38
2017-09-10T06:01:54.953Z,12.38
2017-09-10T06:02:35.535Z,12.37
2017-09-10T06:03:16.117Z,12.38
2017-09-10T06:03:56.694Z,12.37
2017-09-10T06:04:37.279Z,12.31
2017-09-10T06:05:17.846Z,12.37
2017-09-10T06:05:58.433Z,12.28
2017-09-10T06:06:39.043Z,12.37
2017-09-10T06:07:19.597Z,12.38
2017-09-10T06:08:00.174Z,12.39
2017-09-10T06:08:40.760Z,12.37
2017-09-10T06:09:21.341Z,12.38
2017-09-10T06:10:01.926Z,12.45
2017-09-10T06:10:42.505Z,12.46
2017-09-10T06:11:23.092Z,12.42
2017-09-10T06:12:03.670Z,12.42
2017-09-10T06:12:44.261Z,12.46
2017-09-10T06:13:24.827Z,12.52
2017-09-10T06:14:05.414Z,12.53
2017-09-10T06:14:45.995Z,12.53
2017-09-10T06:15:26.578Z,12.56
2017-09-10T06:16:07.155Z,12.53
2017-09-10T06:16:47.734Z,12.59
2017-09-10T06:17:28.314Z,12.56
2017-09-10T06:18:08.909Z,12.53
2017-09-10T06:18:49.482Z,12.56
2017-09-10T06:19:30.065Z,12.67
2017-09-10T06:20:10.649Z,12.74
2017-09-10T06:20:51.232Z,12.74
2017-09-10T06:21:31.816Z,12.75
2017-09-10T06:22:12.400Z,12.71
2017-09-10T06:22:52.989Z,12.71
2017-09-10T06:23:33.575Z,12.78
2017-09-10T06:24:14.159Z,12.82
2017-09-10T06:24:54.743Z,12.67
2017-09-10T06:25:35.322Z,12.7
2017-09-10T06:27:22.846Z,12.77
2017-09-10T06:28:03.429Z,12.62
2017-09-10T06:28:44.006Z,12.68
2017-09-10T06:29:24.581Z,12.7
2017-09-10T06:30:05.163Z,12.7
2017-09-10T06:30:45.746Z,12.7
2017-09-10T06:31:26.326Z,12.72
2017-09-10T06:32:06.909Z,12.71
2017-09-10T06:32:47.491Z,12.7
2017-09-10T06:33:28.073Z,12.79
2017-09-10T06:34:08.655Z,12.78
2017-09-10T06:34:49.245Z,12.77
2017-09-10T06:35:29.816Z,12.75
2017-09-10T06:36:10.400Z,12.77
2017-09-10T06:36:50.969Z,12.71
2017-09-10T06:37:31.552Z,12.68
2017-09-10T06:38:12.133Z,12.71
2017-09-10T06:38:52.716Z,12.78
2017-09-10T06:39:33.296Z,12.79
2017-09-10T06:40:13.885Z,12.79
2017-09-10T06:40:54.459Z,12.92
2017-09-10T06:41:35.036Z,12.96
2017-09-10T06:42:15.618Z,12.97
2017-09-10T06:42:56.206Z,12.9
2017-09-10T06:43:36.789Z,12.96
2017-09-10T06:44:17.369Z,13.05
2017-09-10T06:44:57.952Z,13.03
2017-09-10T06:45:38.532Z,12.96
2017-09-10T06:46:19.102Z,13.04
2017-09-10T06:46:59.685Z,13.11
2017-09-10T06:47:40.270Z,13.22
2017-09-10T06:48:20.844Z,13.25
2017-09-10T06:49:01.430Z,13.3
2017-09-10T06:49:42.004Z,13.25
2017-09-10T06:50:22.586Z,13.2
2017-09-10T06:51:59.964Z,13.15
2017-09-10T06:52:40.540Z,13.19
2017-09-10T06:53:21.116Z,13.25
2017-09-10T06:54:01.698Z,13.39
2017-09-10T06:54:42.282Z,13.33
2017-09-10T06:55:22.867Z,13.49
2017-09-10T06:56:03.451Z,13.46
2017-09-10T06:56:44.031Z,13.36
2017-09-10T06:57:24.622Z,13.42
2017-09-10T06:58:05.206Z,13.55
2017-09-10T06:58:45.779Z,13.49
2017-09-10T06:59:26.352Z,13.38
2017-09-10T07:00:06.932Z,13.48
2017-09-10T07:00:47.518Z,13.48
2017-09-10T07:01:28.104Z,13.55
2017-09-10T07:02:08.685Z,13.6
2017-09-10T07:02:49.266Z,13.62
2017-09-10T07:03:29.841Z,13.62
2017-09-10T07:04:10.426Z,13.57
2017-09-10T07:04:50.990Z,13.51
2017-09-10T07:05:31.576Z,13.62
2017-09-10T07:06:12.158Z,13.55
2017-09-10T07:06:52.740Z,13.55
2017-09-10T07:07:33.327Z,13.62
2017-09-10T07:08:13.903Z,13.62
2017-09-10T07:08:54.471Z,13.64
2017-09-10T07:09:35.048Z,13.66
2017-09-10T07:10:15.626Z,13.71
2017-09-10T07:10:56.205Z,13.62
2017-09-10T07:11:36.781Z,13.59
2017-09-10T07:12:17.364Z,13.6
2017-09-10T07:12:57.943Z,13.49
2017-09-10T07:13:38.515Z,13.46
2017-09-10T07:14:19.106Z,13.42
2017-09-10T07:14:59.687Z,13.39
2017-09-10T07:15:40.261Z,13.42
2017-09-10T07:16:20.840Z,13.36
2017-09-10T07:17:01.426Z,13.33
2017-09-10T07:17:42.007Z,13.39
2017-09-10T07:18:22.589Z,13.39
2017-09-10T07:19:03.154Z,13.28
2017-09-10T07:19:43.750Z,13.29
2017-09-10T07:20:24.331Z,13.17
2017-09-10T07:21:04.913Z,13.19
2017-09-10T07:21:45.494Z,13.36
2017-09-10T07:22:26.084Z,13.32
2017-09-10T07:23:06.658Z,13.44
2017-09-10T07:23:47.248Z,13.39
2017-09-10T07:24:30.730Z,13.39
2017-09-10T07:25:11.308Z,13.41
2017-09-10T07:25:51.893Z,13.46
2017-09-10T07:26:32.477Z,13.51
2017-09-10T07:27:13.060Z,13.54
2017-09-10T07:27:53.646Z,13.52
2017-09-10T07:28:34.222Z,13.73
2017-09-10T07:29:14.809Z,13.82
2017-09-10T07:29:55.389Z,13.79
2017-09-10T07:30:35.985Z,13.87
2017-09-10T07:31:16.562Z,13.87
2017-09-10T07:31:57.136Z,14
2017-09-10T07:32:37.728Z,14
2017-09-10T07:33:18.308Z,14
2017-09-10T07:33:58.889Z,13.91
2017-09-10T07:34:39.470Z,14.03
2017-09-10T07:35:20.045Z,14.02
2017-09-10T07:36:00.626Z,13.95
2017-09-10T07:36:41.215Z,13.99
2017-09-10T07:37:21.796Z,14.07
2017-09-10T07:38:02.386Z,14.17
2017-09-10T07:38:42.968Z,14.14
2017-09-10T07:39:23.557Z,14.14
2017-09-10T07:40:04.134Z,14.25
2017-09-10T07:40:44.720Z,14.32
2017-09-10T07:41:25.299Z,14.46
2017-09-10T07:42:05.876Z,14.37
2017-09-10T07:42:46.465Z,14.35
2017-09-10T07:43:27.045Z,14.35
2017-09-10T07:44:07.630Z,14.42
2017-09-10T07:44:48.216Z,14.47
2017-09-10T07:45:28.790Z,14.58
2017-09-10T07:46:09.381Z,14.58
2017-09-10T07:46:49.965Z,14.52
2017-09-10T07:47:30.547Z,14.55
2017-09-10T07:48:11.132Z,14.64
2017-09-10T07:48:51.716Z,14.65
2017-09-10T07:49:32.299Z,14.68
2017-09-10T07:50:12.882Z,14.73
2017-09-10T07:50:53.469Z,14.78
2017-09-10T07:51:34.045Z,14.7
2017-09-10T07:52:14.630Z,14.68
2017-09-10T07:52:55.210Z,14.54
2017-09-10T07:53:35.797Z,14.47
2017-09-10T07:54:16.367Z,14.36
2017-09-10T07:54:56.948Z,14.35
2017-09-10T07:55:37.537Z,14.42
2017-09-10T07:56:18.122Z,14.51
2017-09-10T07:56:58.705Z,14.55
2017-09-10T07:57:39.286Z,14.7
2017-09-10T07:58:19.867Z,14.73
2017-09-10T07:59:00.442Z,14.68
2017-09-10T07:59:41.025Z,14.62
2017-09-10T08:00:21.619Z,14.52
2017-09-10T08:01:02.208Z,14.73
2017-09-10T08:01:42.796Z,14.55
2017-09-10T08:02:23.379Z,14.54
2017-09-10T08:03:03.964Z,14.62
2017-09-10T08:03:44.549Z,14.52
2017-09-10T08:04:25.136Z,14.57
2017-09-10T08:05:05.715Z,14.52
2017-09-10T08:05:46.289Z,14.4
2017-09-10T08:06:26.862Z,14.39
2017-09-10T08:07:07.439Z,14.45
2017-09-10T08:07:48.014Z,14.46
2017-09-10T08:08:28.598Z,14.57
2017-09-10T08:09:09.184Z,14.57
2017-09-10T08:09:49.760Z,14.51
2017-09-10T08:10:30.343Z,14.65
2017-09-10T08:11:10.925Z,14.77
2017-09-10T08:11:51.512Z,14.89
2017-09-10T08:12:32.101Z,14.94
2017-09-10T08:13:12.676Z,14.86
2017-09-10T08:13:53.257Z,14.94
2017-09-10T08:14:33.838Z,14.92
2017-09-10T08:15:14.423Z,14.96
2017-09-10T08:15:55.001Z,14.88
2017-09-10T08:16:35.591Z,14.94
2017-09-10T08:17:16.159Z,14.94
2017-09-10T08:17:56.748Z,14.94
2017-09-10T08:18:37.329Z,14.99
2017-09-10T08:19:17.912Z,15.01
2017-09-10T08:19:58.492Z,14.91
2017-09-10T08:20:39.080Z,14.96
2017-09-10T08:21:19.663Z,14.94
2017-09-10T08:22:00.248Z,14.88
2017-09-10T08:22:40.832Z,15.06
2017-09-10T08:23:21.404Z,15.06
2017-09-10T08:24:01.991Z,15.02
2017-09-10T08:24:42.578Z,15.06
2017-09-10T08:25:23.158Z,15.14
2017-09-10T08:26:03.744Z,15.14
2017-09-10T08:26:44.330Z,15.14
2017-09-10T08:27:24.897Z,15.14
2017-09-10T08:28:05.480Z,15.13
2017-09-10T08:28:46.056Z,15.19
2017-09-10T08:29:26.623Z,15.19
2017-09-10T08:30:07.212Z,15.13
2017-09-10T08:30:47.816Z,15.13
2017-09-10T08:31:28.391Z,15.23
2017-09-10T08:32:08.979Z,15.31
2017-09-10T08:32:49.566Z,15.44
2017-09-10T08:33:30.144Z,15.47
2017-09-10T08:34:10.724Z,15.43
2017-09-10T08:34:51.307Z,15.29
2017-09-10T08:35:31.892Z,15.44
2017-09-10T08:36:12.475Z,15.51
2017-09-10T08:36:53.055Z,15.54
2017-09-10T08:37:33.640Z,15.59
2017-09-10T08:39:11.017Z,15.6
2017-09-10T08:39:51.602Z,15.67
2017-09-10T08:40:32.185Z,15.69
2017-09-10T08:41:12.769Z,15.57
2017-09-10T08:41:53.348Z,15.62
2017-09-10T08:42:33.924Z,15.71
2017-09-10T08:43:14.508Z,15.82
2017-09-10T08:43:55.091Z,16
2017-09-10T08:44:35.669Z,16.15
2017-09-10T08:45:16.250Z,16.43
2017-09-10T08:45:56.829Z,16.64
2017-09-10T08:46:37.403Z,16.71
2017-09-10T08:47:17.969Z,17
2017-09-10T08:47:58.550Z,17.26
2017-09-10T08:48:39.139Z,17.36
2017-09-10T08:49:19.719Z,17.59
2017-09-10T08:50:00.301Z,17.81
2017-09-10T08:50:40.888Z,17.87
2017-09-10T08:51:21.469Z,17.79
2017-09-10T08:52:02.051Z,17.84
2017-09-10T08:52:42.629Z,17.82
2017-09-10T08:53:23.217Z,17.87
2017-09-10T08:54:03.796Z,17.86